createdAt,value
2023-01-20T00:02:11.008Z,99755.75
2023-01-20T00:04:40.654Z,99717.44
2023-01-20T00:07:08.704Z,99769.00
2023-01-20T00:09:36.912Z,99755.75
2023-01-20T00:12:05.505Z,99761.13
2023-01-20T00:14:33.887Z,99768.19
2023-01-20T00:17:01.981Z,99771.84
2023-01-20T00:19:30.098Z,99775.53
2023-01-20T00:21:59.615Z,99770.16
2023-01-20T00:24:28.015Z,99732.16
2023-01-20T00:26:56.364Z,99738.16
2023-01-20T00:29:24.572Z,99786.25
2023-01-20T00:31:52.581Z,99796.97
2023-01-20T00:34:20.605Z,99796.97
2023-01-20T00:36:48.675Z,99794.22
2023-01-20T00:39:18.075Z,99807.69
2023-01-20T00:41:46.152Z,99807.69
2023-01-20T00:44:14.256Z,99818.41
2023-01-20T00:46:42.245Z,99821.25
2023-01-20T00:49:11.258Z,99823.75
2023-01-20T00:51:39.554Z,99827.44
2023-01-20T00:54:07.683Z,99838.97
2023-01-20T00:56:37.095Z,99832.81
2023-01-20T00:59:05.174Z,99838.16
2023-01-20T01:01:33.908Z,99814.91
2023-01-20T01:04:02.282Z,99844.34
2023-01-20T01:06:30.684Z,99817.91
2023-01-20T01:08:59.142Z,99857.59
2023-01-20T01:11:27.162Z,99855.91
2023-01-20T01:13:58.326Z,99858.44
2023-01-20T01:16:26.377Z,99861.28
2023-01-20T01:18:55.924Z,99846.69
2023-01-20T01:21:24.212Z,99874.66
2023-01-20T01:23:53.882Z,99852.41
2023-01-20T01:26:22.021Z,99869.41
2023-01-20T01:28:50.769Z,99875.69
2023-01-20T01:31:22.035Z,99890.75
2023-01-20T01:33:50.657Z,99897.09
2023-01-20T01:36:19.086Z,99891.75
2023-01-20T01:38:57.697Z,99893.56
2023-01-20T01:41:27.573Z,99897.09
2023-01-20T01:44:03.982Z,99895.41
2023-01-20T01:46:33.942Z,99902.47
2023-01-20T01:49:06.328Z,99907.84
2023-01-20T01:51:37.555Z,99911.47
2023-01-20T01:54:11.039Z,99911.47
2023-01-20T01:56:41.802Z,99916.84
2023-01-20T01:59:11.215Z,99911.47
2023-01-20T02:01:45.017Z,99921.22
2023-01-20T02:04:15.155Z,99920.38
2023-01-20T02:06:46.930Z,99928.41
2023-01-20T02:09:15.377Z,99931.94
2023-01-20T02:11:51.065Z,99933.78
2023-01-20T02:14:21.492Z,99940.28
2023-01-20T02:17:00.360Z,99939.97
2023-01-20T02:20:02.057Z,99931.75
2023-01-20T02:22:38.952Z,99962.38
2023-01-20T02:25:44.549Z,99958.91
2023-01-20T02:28:48.898Z,99957.81
2023-01-20T02:31:37.946Z,99972.44
2023-01-20T02:34:16.527Z,99969.06
2023-01-20T02:36:49.358Z,99965.38
2023-01-20T02:39:27.303Z,99966.38
2023-01-20T02:42:01.692Z,99963.72
2023-01-20T02:44:37.177Z,99974.44
2023-01-20T02:47:12.073Z,99976.09
2023-01-20T02:49:49.107Z,99977.69
2023-01-20T02:52:22.433Z,99968.59
2023-01-20T02:54:53.548Z,99988.53
2023-01-20T02:57:27.907Z,99993.88
2023-01-20T02:59:59.206Z,99993.88
2023-01-20T03:02:30.685Z,99959.66
2023-01-20T03:05:06.715Z,99992.47
2023-01-20T03:07:54.834Z,100004.59
2023-01-20T03:10:27.827Z,100009.09
2023-01-20T03:12:58.799Z,100018.00
2023-01-20T03:15:33.789Z,100005.22
2023-01-20T03:18:02.323Z,100024.31
2023-01-20T03:20:32.133Z,100024.31
2023-01-20T03:23:00.229Z,100030.53
2023-01-20T03:25:28.454Z,100029.69
2023-01-20T03:27:56.632Z,100028.59
2023-01-20T03:30:25.744Z,100024.69
2023-01-20T03:32:54.915Z,100043.78
2023-01-20T03:35:23.820Z,100036.19
2023-01-20T03:37:53.350Z,100019.50
2023-01-20T03:40:23.381Z,100042.09
2023-01-20T03:42:59.713Z,100045.75
2023-01-20T03:45:35.998Z,100045.75
2023-01-20T03:48:10.807Z,100009.84
2023-01-20T03:50:44.957Z,100061.84
2023-01-20T03:53:26.103Z,100042.72
2023-01-20T03:56:02.045Z,100063.53
2023-01-20T03:58:33.370Z,100068.91
2023-01-20T04:01:16.024Z,100077.91
2023-01-20T04:03:49.866Z,100082.31
2023-01-20T04:06:20.802Z,100045.50
2023-01-20T04:08:56.761Z,100088.63
2023-01-20T04:11:26.174Z,100089.78
2023-01-20T04:13:54.567Z,100094.00
2023-01-20T04:16:24.851Z,100099.34
2023-01-20T04:18:54.007Z,100103.03
2023-01-20T04:21:29.673Z,100104.72
2023-01-20T04:24:04.972Z,100076.34
2023-01-20T04:26:33.091Z,100109.25
2023-01-20T04:29:11.147Z,100059.81
2023-01-20T04:31:40.228Z,100117.72
2023-01-20T04:34:08.922Z,100124.47
2023-01-20T04:36:36.914Z,100125.31
2023-01-20T04:39:06.446Z,100135.88
2023-01-20T04:41:34.498Z,100143.94
2023-01-20T04:44:02.498Z,100140.53
2023-01-20T04:46:30.602Z,100120.72
2023-01-20T04:48:59.039Z,100152.94
2023-01-20T04:51:27.223Z,100143.69
2023-01-20T04:53:58.145Z,100158.28
2023-01-20T04:56:28.352Z,100163.66
2023-01-20T04:58:56.421Z,100169.00
2023-01-20T05:01:24.835Z,100162.53
2023-01-20T05:03:53.026Z,100179.72
2023-01-20T05:06:21.163Z,100174.38
2023-01-20T05:08:49.205Z,100181.44
2023-01-20T05:11:17.265Z,100140.38
2023-01-20T05:13:46.718Z,100191.16
2023-01-20T05:16:15.200Z,100173.56
2023-01-20T05:18:43.264Z,100079.00
2023-01-20T05:21:11.378Z,100183.72
2023-01-20T05:23:39.509Z,100169.66
2023-01-20T05:26:07.526Z,100115.44
2023-01-20T05:28:36.036Z,100213.59
2023-01-20T05:31:05.652Z,100211.88
2023-01-20T05:33:33.813Z,100211.88
2023-01-20T05:36:06.103Z,100141.63
2023-01-20T05:38:34.245Z,100222.47
2023-01-20T05:41:02.546Z,100215.88
2023-01-20T05:43:30.718Z,100191.91
2023-01-20T05:45:59.382Z,100220.94
2023-01-20T05:48:29.177Z,100229.66
2023-01-20T05:50:57.334Z,100059.16
2023-01-20T05:53:25.492Z,100232.50
2023-01-20T05:56:01.361Z,100224.91
2023-01-20T05:58:30.624Z,100132.28
2023-01-20T06:01:06.116Z,100250.09
2023-01-20T06:03:35.839Z,100177.41
2023-01-20T06:06:05.077Z,100260.13
2023-01-20T06:08:33.171Z,100265.78
2023-01-20T06:11:01.817Z,100276.50
2023-01-20T06:13:29.964Z,100282.84
2023-01-20T06:15:58.301Z,100287.22
2023-01-20T06:18:26.453Z,100287.22
2023-01-20T06:20:59.934Z,100297.63
2023-01-20T06:23:28.607Z,100292.56
2023-01-20T06:26:00.811Z,100297.63
2023-01-20T06:28:29.785Z,100301.59
2023-01-20T06:31:02.678Z,100312.75
2023-01-20T06:33:30.890Z,100319.91
2023-01-20T06:36:00.683Z,100323.47
2023-01-20T06:38:31.291Z,100331.50
2023-01-20T06:40:59.912Z,100329.50
2023-01-20T06:43:30.104Z,100339.09
2023-01-20T06:46:02.039Z,100176.28
2023-01-20T06:48:30.675Z,100345.00
2023-01-20T06:51:03.649Z,100351.19
2023-01-20T06:53:32.514Z,100362.78
2023-01-20T06:56:02.038Z,100366.13
2023-01-20T06:58:32.106Z,100360.78
2023-01-20T07:01:06.644Z,100285.88
2023-01-20T07:03:34.808Z,100362.47
2023-01-20T07:06:06.319Z,100375.88
2023-01-20T07:08:34.476Z,100381.94
2023-01-20T07:11:02.553Z,100395.47
2023-01-20T07:13:30.688Z,100387.28
2023-01-20T07:15:58.811Z,100400.69
2023-01-20T07:18:27.213Z,100411.41
2023-01-20T07:20:56.068Z,100412.13
2023-01-20T07:23:25.916Z,100418.47
2023-01-20T07:25:59.077Z,100425.53
2023-01-20T07:28:27.534Z,100429.06
2023-01-20T07:30:56.010Z,100424.53
2023-01-20T07:33:24.201Z,100398.06
2023-01-20T07:35:54.303Z,100375.25
2023-01-20T07:38:22.567Z,100426.69
2023-01-20T07:40:52.110Z,100434.44
2023-01-20T07:43:20.201Z,100448.25
2023-01-20T07:45:48.383Z,100468.13
2023-01-20T07:48:16.787Z,100473.47
2023-01-20T07:50:44.855Z,100476.44
2023-01-20T07:53:13.522Z,100486.88
2023-01-20T07:55:41.580Z,100495.94
2023-01-20T07:58:11.169Z,100493.94
2023-01-20T08:00:39.354Z,100497.59
2023-01-20T08:03:07.467Z,100503.81
2023-01-20T08:05:35.705Z,100506.66
2023-01-20T08:08:04.202Z,100508.63
2023-01-20T08:10:32.361Z,100517.09
2023-01-20T08:13:00.590Z,100495.34
2023-01-20T08:15:30.316Z,100529.50
2023-01-20T08:17:59.756Z,100534.84
2023-01-20T08:20:27.947Z,100540.22
2023-01-20T08:22:56.107Z,100511.16
2023-01-20T08:25:24.288Z,100548.25
2023-01-20T08:27:52.407Z,100552.63
2023-01-20T08:30:20.820Z,100524.28
2023-01-20T08:32:51.098Z,100550.66
2023-01-20T08:35:19.568Z,100565.06
2023-01-20T08:37:47.628Z,100569.56
2023-01-20T08:40:16.102Z,100550.78
2023-01-20T08:42:44.209Z,100529.78
2023-01-20T08:45:12.906Z,100573.53
2023-01-20T08:47:46.111Z,100577.75
2023-01-20T08:50:16.230Z,100579.44
2023-01-20T08:52:44.316Z,100591.88
2023-01-20T08:55:13.279Z,100597.22
2023-01-20T08:57:41.485Z,100609.63
2023-01-20T09:00:11.267Z,100605.25
2023-01-20T09:02:39.634Z,100613.31
2023-01-20T09:05:11.847Z,100615.00
2023-01-20T09:07:41.300Z,100624.84
2023-01-20T09:10:10.597Z,100624.84
2023-01-20T09:12:39.678Z,100635.72
2023-01-20T09:15:08.965Z,100614.72
2023-01-20T09:17:37.080Z,100646.44
2023-01-20T09:20:05.715Z,100652.53
2023-01-20T09:22:34.116Z,100607.78
2023-01-20T09:25:03.522Z,100659.56
2023-01-20T09:27:33.779Z,100657.88
2023-01-20T09:30:01.809Z,100663.25
2023-01-20T09:32:29.827Z,100670.56
2023-01-20T09:34:58.208Z,100673.97
2023-01-20T09:37:43.702Z,100555.94
2023-01-20T09:40:36.791Z,100684.97
2023-01-20T09:43:36.187Z,100706.69
2023-01-20T09:46:10.987Z,100694.84
2023-01-20T09:49:04.021Z,100707.97
2023-01-20T09:51:58.611Z,100710.66
2023-01-20T09:54:30.365Z,100712.59
2023-01-20T09:57:01.867Z,100716.28
2023-01-20T09:59:37.065Z,100713.16
2023-01-20T10:02:12.440Z,100727.00
2023-01-20T10:04:45.329Z,100733.34
2023-01-20T10:07:21.278Z,100722.19
2023-01-20T10:09:56.697Z,100700.38
2023-01-20T10:12:35.123Z,100736.00
2023-01-20T10:15:08.902Z,100731.34
2023-01-20T10:17:44.423Z,100745.03
2023-01-20T10:20:18.691Z,100750.41
2023-01-20T10:22:51.557Z,100749.56
2023-01-20T10:25:26.381Z,100754.09
2023-01-20T10:28:02.683Z,100734.25
2023-01-20T10:30:34.353Z,100773.81
2023-01-20T10:33:09.934Z,100756.75
2023-01-20T10:35:40.872Z,100746.13
2023-01-20T10:38:19.511Z,100745.41
2023-01-20T10:40:55.105Z,100695.50
2023-01-20T10:43:24.939Z,100773.81
2023-01-20T10:46:16.633Z,100779.16
2023-01-20T10:49:18.015Z,100781.16
2023-01-20T10:51:53.807Z,100785.78
2023-01-20T10:54:33.243Z,100669.47
2023-01-20T10:57:05.285Z,100790.16
2023-01-20T10:59:51.189Z,100790.16
2023-01-20T11:02:22.360Z,100726.50
2023-01-20T11:05:00.063Z,100807.09
2023-01-20T11:07:29.793Z,100800.88
2023-01-20T11:09:57.846Z,100804.56
2023-01-20T11:12:29.553Z,100738.63
2023-01-20T11:15:01.926Z,100819.66
2023-01-20T11:17:30.655Z,100817.22
2023-01-20T11:20:06.733Z,100816.09
2023-01-20T11:22:37.182Z,100836.44
2023-01-20T11:25:06.647Z,100829.97
2023-01-20T11:27:42.806Z,100844.94
2023-01-20T11:30:28.446Z,100850.31
2023-01-20T11:33:10.668Z,100853.94
2023-01-20T11:35:38.929Z,100854.94
2023-01-20T11:38:24.972Z,100836.53
2023-01-20T11:41:15.052Z,100861.31
2023-01-20T11:43:44.095Z,100822.75
2023-01-20T11:46:22.827Z,100881.88
2023-01-20T11:48:53.143Z,100881.03
2023-01-20T11:51:27.085Z,100891.75
2023-01-20T11:54:09.673Z,100874.50
2023-01-20T11:56:45.166Z,100884.69
2023-01-20T11:59:31.193Z,100882.69
2023-01-20T12:02:04.320Z,100883.53
2023-01-20T12:04:58.702Z,100854.19
2023-01-20T12:07:30.934Z,100903.59
2023-01-20T12:10:04.903Z,100880.91
2023-01-20T12:12:40.055Z,100908.09
2023-01-20T12:15:16.920Z,100911.50
2023-01-20T12:17:59.792Z,100891.88
2023-01-20T12:20:42.331Z,100926.47
2023-01-20T12:23:24.136Z,100900.84
2023-01-20T12:25:58.009Z,100934.09
2023-01-20T12:28:33.487Z,100940.19
2023-01-20T12:31:03.320Z,100948.22
2023-01-20T12:33:35.439Z,100947.25
2023-01-20T12:36:32.550Z,100944.56
2023-01-20T12:39:22.207Z,100909.88
2023-01-20T12:42:19.161Z,100942.88
2023-01-20T12:44:51.818Z,100957.97
2023-01-20T12:47:37.678Z,100963.31
2023-01-20T12:50:26.004Z,100909.91
2023-01-20T12:53:18.264Z,100959.41
2023-01-20T12:55:57.448Z,100971.91
2023-01-20T12:58:40.880Z,100979.25
2023-01-20T13:01:50.807Z,100975.84
2023-01-20T13:04:55.616Z,100989.97
2023-01-20T13:07:53.368Z,100995.59
2023-01-20T13:10:46.357Z,100993.59
2023-01-20T13:13:55.919Z,101002.63
2023-01-20T13:16:33.627Z,101006.56
2023-01-20T13:19:09.691Z,100993.19
2023-01-20T13:21:37.991Z,100998.06
2023-01-20T13:24:08.968Z,101022.13
2023-01-20T13:26:38.424Z,101017.53
2023-01-20T13:29:08.454Z,101036.88
2023-01-20T13:31:50.168Z,101032.75
2023-01-20T13:34:36.826Z,101044.34
2023-01-20T13:37:33.869Z,101051.91
2023-01-20T13:40:05.803Z,101064.31
2023-01-20T13:42:51.578Z,101066.31
2023-01-20T13:45:28.769Z,101068.22
2023-01-20T13:48:02.813Z,101074.47
2023-01-20T13:50:37.211Z,101077.25
2023-01-20T13:53:23.319Z,101088.91
2023-01-20T13:55:54.953Z,100978.16
2023-01-20T13:58:34.895Z,101014.63
2023-01-20T14:01:05.381Z,101095.31
2023-01-20T14:03:35.390Z,101112.34
2023-01-20T14:06:06.908Z,101115.28
2023-01-20T14:08:56.309Z,101123.31
2023-01-20T14:11:27.207Z,101134.03
2023-01-20T14:13:58.030Z,101130.53
2023-01-20T14:16:28.337Z,101143.06
2023-01-20T14:19:00.537Z,101064.50
2023-01-20T14:21:37.828Z,101142.06
2023-01-20T14:24:06.971Z,101154.66
2023-01-20T14:26:38.421Z,101154.03
2023-01-20T14:29:07.367Z,101163.63
2023-01-20T14:31:41.235Z,100998.59
2023-01-20T14:34:30.569Z,101163.06
2023-01-20T14:37:03.102Z,101182.50
2023-01-20T14:39:32.315Z,101186.06
2023-01-20T14:42:04.229Z,101181.06
2023-01-20T14:44:39.362Z,101201.25
2023-01-20T14:47:08.184Z,101197.75
2023-01-20T14:49:40.279Z,101026.81
2023-01-20T14:52:13.538Z,101207.59
2023-01-20T14:54:45.688Z,101218.31
2023-01-20T14:57:30.641Z,101216.63
2023-01-20T15:00:24.312Z,101222.00
2023-01-20T15:03:10.331Z,101224.66
2023-01-20T15:05:42.693Z,101232.69
2023-01-20T15:08:26.198Z,101234.41
2023-01-20T15:11:31.669Z,101244.38
2023-01-20T15:14:13.493Z,101242.41
2023-01-20T15:16:47.544Z,101215.16
2023-01-20T15:19:34.880Z,101264.00
2023-01-20T15:22:19.172Z,101260.69
2023-01-20T15:24:49.615Z,101259.75
2023-01-20T15:27:28.586Z,101266.78
2023-01-20T15:30:14.989Z,101273.13
2023-01-20T15:32:43.450Z,101177.91
2023-01-20T15:35:14.168Z,101288.22
2023-01-20T15:37:51.568Z,101297.13
2023-01-20T15:40:21.787Z,101302.34
2023-01-20T15:42:53.699Z,101309.41
2023-01-20T15:45:28.495Z,101300.28
2023-01-20T15:47:57.972Z,101261.28
2023-01-20T15:50:26.802Z,101326.47
2023-01-20T15:52:55.374Z,101334.50
2023-01-20T15:55:23.505Z,101338.13
2023-01-20T15:57:53.325Z,101341.06
2023-01-20T16:00:28.783Z,101355.06
2023-01-20T16:02:58.685Z,101339.09
2023-01-20T16:05:26.910Z,101370.28
2023-01-20T16:08:17.609Z,101370.28
2023-01-20T16:10:46.019Z,101376.63
2023-01-20T16:13:14.252Z,101379.31
2023-01-20T16:15:44.476Z,101378.09
2023-01-20T16:18:16.282Z,101390.25
2023-01-20T16:20:46.779Z,101395.38
2023-01-20T16:23:15.787Z,101396.25
2023-01-20T16:25:45.098Z,101225.28
2023-01-20T16:28:15.511Z,101414.88
2023-01-20T16:30:46.163Z,101428.28
2023-01-20T16:33:19.991Z,101240.03
2023-01-20T16:35:49.077Z,101429.22
2023-01-20T16:38:19.163Z,101405.34
2023-01-20T16:40:51.159Z,101385.91
2023-01-20T16:43:20.369Z,101434.81
2023-01-20T16:45:55.448Z,101404.06
2023-01-20T16:48:31.321Z,101455.41
2023-01-20T16:51:05.543Z,101469.66
2023-01-20T16:53:34.040Z,101451.59
2023-01-20T16:56:02.829Z,101475.97
2023-01-20T16:58:31.378Z,101450.06
2023-01-20T17:01:01.161Z,101455.09
2023-01-20T17:03:30.008Z,101491.41
2023-01-20T17:06:00.168Z,101494.22
2023-01-20T17:08:28.654Z,101455.16
2023-01-20T17:10:56.780Z,101501.53
2023-01-20T17:13:25.008Z,101489.56
2023-01-20T17:15:53.146Z,101510.53
2023-01-20T17:18:23.536Z,101486.63
2023-01-20T17:20:51.868Z,101513.31
2023-01-20T17:23:20.597Z,101475.84
2023-01-20T17:25:48.978Z,101492.44
2023-01-20T17:28:17.750Z,101496.31
2023-01-20T17:30:46.200Z,101475.16
2023-01-20T17:33:14.952Z,101542.88
2023-01-20T17:35:46.366Z,101539.50
2023-01-20T17:38:15.643Z,101540.41
2023-01-20T17:40:44.034Z,101562.63
2023-01-20T17:43:12.136Z,101566.28
2023-01-20T17:45:40.349Z,101577.00
2023-01-20T17:48:08.549Z,101535.94
2023-01-20T17:50:36.720Z,101553.03
2023-01-20T17:53:06.388Z,101584.03
2023-01-20T17:55:34.545Z,101589.41
2023-01-20T17:58:02.725Z,101593.06
2023-01-20T18:00:31.023Z,101598.41
2023-01-20T18:02:59.380Z,101598.41
2023-01-20T18:05:28.717Z,101603.78
2023-01-20T18:07:56.920Z,101611.06
2023-01-20T18:10:26.567Z,101614.50
2023-01-20T18:12:54.770Z,101610.06
2023-01-20T18:15:23.166Z,101621.78
2023-01-20T18:17:51.403Z,101627.13
2023-01-20T18:20:19.574Z,101630.66
2023-01-20T18:22:51.307Z,101593.16
2023-01-20T18:25:19.828Z,101630.78
2023-01-20T18:27:49.543Z,101638.81
2023-01-20T18:30:18.566Z,101534.63
2023-01-20T18:32:46.996Z,101640.75
2023-01-20T18:35:15.151Z,101647.81
2023-01-20T18:37:43.258Z,101654.13
2023-01-20T18:40:12.729Z,101613.38
2023-01-20T18:42:40.962Z,101668.28
2023-01-20T18:45:11.247Z,101636.09
2023-01-20T18:47:39.389Z,101671.91
2023-01-20T18:50:08.168Z,101678.25
2023-01-20T18:52:36.252Z,101681.78
2023-01-20T18:55:04.550Z,101686.28
2023-01-20T18:57:32.704Z,101698.69
2023-01-20T19:00:00.937Z,101704.03
2023-01-20T19:02:30.447Z,101709.63
2023-01-20T19:04:58.732Z,101627.63
2023-01-20T19:07:26.876Z,101718.41
2023-01-20T19:09:55.005Z,101699.34
2023-01-20T19:12:23.182Z,101724.84
2023-01-20T19:14:52.780Z,101722.06
2023-01-20T19:17:20.995Z,101731.81
2023-01-20T19:19:50.667Z,101738.13
2023-01-20T19:22:18.705Z,101734.69
2023-01-20T19:24:46.822Z,101745.19
2023-01-20T19:27:14.824Z,101730.22
2023-01-20T19:29:42.881Z,101759.56
2023-01-20T19:32:11.081Z,101764.91
2023-01-20T19:34:39.325Z,101770.28
2023-01-20T19:37:08.766Z,101775.63
2023-01-20T19:39:36.795Z,101785.69
2023-01-20T19:42:04.986Z,101757.41
2023-01-20T19:44:32.961Z,101789.97
2023-01-20T19:47:04.321Z,101770.91
2023-01-20T19:49:32.374Z,101798.00
2023-01-20T19:52:00.780Z,101803.47
2023-01-20T19:54:30.994Z,101815.03
2023-01-20T19:56:58.999Z,101815.03
2023-01-20T19:59:27.003Z,101816.75
2023-01-20T20:01:55.041Z,101820.50
2023-01-20T20:04:24.225Z,101836.47
2023-01-20T20:06:52.288Z,101840.97
2023-01-20T20:09:23.483Z,101847.19
2023-01-20T20:11:53.507Z,101857.91
2023-01-20T20:14:23.930Z,101856.19
2023-01-20T20:16:52.105Z,101861.56
2023-01-20T20:19:20.799Z,101866.91
2023-01-20T20:21:49.085Z,101871.41
2023-01-20T20:24:18.692Z,101851.91
2023-01-20T20:26:47.412Z,101877.63
2023-01-20T20:29:18.939Z,101887.56
2023-01-20T20:31:47.147Z,101891.97
2023-01-20T20:34:17.894Z,101863.88
2023-01-20T20:36:46.846Z,101899.25
2023-01-20T20:39:17.318Z,101920.47
2023-01-20T20:41:45.920Z,101914.34
2023-01-20T20:44:14.009Z,101913.38
2023-01-20T20:46:43.605Z,101913.38
2023-01-20T20:49:15.204Z,101924.09
2023-01-20T20:51:43.447Z,101924.09
2023-01-20T20:54:13.175Z,101929.44
2023-01-20T20:56:41.434Z,101941.03
2023-01-20T20:59:10.570Z,101912.19
2023-01-20T21:01:38.772Z,101949.16
2023-01-20T21:04:08.716Z,101952.63
2023-01-20T21:06:36.722Z,101961.59
2023-01-20T21:09:04.760Z,101963.31
2023-01-20T21:11:33.082Z,101968.69
2023-01-20T21:14:01.104Z,101945.03
2023-01-20T21:16:29.304Z,101988.38
2023-01-20T21:18:59.444Z,101992.03
2023-01-20T21:21:29.934Z,101993.72
2023-01-20T21:23:59.794Z,102000.94
2023-01-20T21:26:30.701Z,102000.06
2023-01-20T21:29:01.826Z,101997.78
2023-01-20T21:31:31.467Z,102009.81
2023-01-20T21:34:00.645Z,102010.78
2023-01-20T21:36:31.487Z,102017.09
2023-01-20T21:39:00.400Z,102024.16
2023-01-20T21:41:28.746Z,102019.97
2023-01-20T21:44:14.296Z,102043.00
2023-01-20T21:46:42.497Z,102026.06
2023-01-20T21:49:28.345Z,102047.31
2023-01-20T21:52:15.893Z,102038.53
2023-01-20T21:54:45.481Z,102050.94
2023-01-20T21:57:14.220Z,102054.59
2023-01-20T21:59:42.485Z,101968.19
2023-01-20T22:02:13.361Z,101991.59
2023-01-20T22:04:42.524Z,102072.38
2023-01-20T22:07:12.060Z,102072.69
2023-01-20T22:09:40.677Z,102076.03
2023-01-20T22:12:09.373Z,102052.16
2023-01-20T22:14:37.818Z,102089.41
2023-01-20T22:17:06.422Z,102090.34
2023-01-20T22:19:34.760Z,102091.53
2023-01-20T22:22:03.245Z,102086.56
2023-01-20T22:24:33.245Z,102106.41
2023-01-20T22:27:02.407Z,102106.41
2023-01-20T22:29:30.491Z,102078.28
2023-01-20T22:32:02.320Z,102122.50
2023-01-20T22:34:30.530Z,102036.50
2023-01-20T22:37:00.481Z,102099.31
2023-01-20T22:39:29.022Z,102127.84
2023-01-20T22:41:58.600Z,102129.59
2023-01-20T22:44:26.722Z,102129.78
2023-01-20T22:46:54.852Z,102090.63
2023-01-20T22:49:22.917Z,102143.91
2023-01-20T22:51:51.068Z,102146.59
2023-01-20T22:54:19.164Z,102152.94
2023-01-20T22:56:47.269Z,102148.63
2023-01-20T22:59:16.904Z,102125.59
2023-01-20T23:01:44.957Z,102163.63
2023-01-20T23:04:12.998Z,102155.06
2023-01-20T23:06:41.145Z,102176.25
2023-01-20T23:09:12.866Z,102154.69
2023-01-20T23:11:41.728Z,102072.84
2023-01-20T23:14:12.935Z,102162.50
2023-01-20T23:16:43.310Z,102181.41
2023-01-20T23:19:12.145Z,102191.28
2023-01-20T23:21:40.463Z,102186.78
2023-01-20T23:24:09.615Z,102191.38
2023-01-20T23:26:37.742Z,102177.06
2023-01-20T23:29:05.747Z,102199.41
2023-01-20T23:31:35.407Z,102170.16
2023-01-20T23:34:05.069Z,102204.78
2023-01-20T23:36:33.223Z,102101.50
2023-01-20T23:39:01.218Z,102214.44
2023-01-20T23:41:29.233Z,102218.91
2023-01-20T23:43:57.337Z,102218.91
2023-01-20T23:46:25.407Z,102226.22
2023-01-20T23:48:53.400Z,102190.06
2023-01-20T23:51:22.946Z,102234.03
2023-01-20T23:53:51.068Z,102234.03
2023-01-20T23:56:21.114Z,102236.72
2023-01-20T23:58:49.359Z,102238.63
